createdAt,value
2019-05-30T00:00:46.987Z,3.40
2019-05-30T00:01:46.974Z,3.80
2019-05-30T00:02:46.917Z,3.30
2019-05-30T00:03:46.896Z,4.00
2019-05-30T00:04:46.902Z,3.30
2019-05-30T00:05:46.928Z,3.60
2019-05-30T00:06:46.882Z,3.20
2019-05-30T00:07:46.852Z,3.60
2019-05-30T00:08:46.938Z,3.50
2019-05-30T00:09:46.846Z,3.60
2019-05-30T00:10:46.849Z,3.00
2019-05-30T00:11:46.821Z,3.70
2019-05-30T00:12:46.997Z,3.90
2019-05-30T00:13:46.786Z,3.60
2019-05-30T00:14:46.799Z,3.50
2019-05-30T00:15:46.838Z,3.90
2019-05-30T00:16:46.764Z,3.60
2019-05-30T00:17:46.744Z,3.70
2019-05-30T00:18:46.761Z,3.40
2019-05-30T00:19:46.779Z,3.90
2019-05-30T00:20:46.768Z,3.70
2019-05-30T00:21:46.727Z,3.80
2019-05-30T00:22:46.686Z,3.70
2019-05-30T00:23:46.699Z,3.40
2019-05-30T00:24:46.666Z,3.60
2019-05-30T00:25:46.670Z,3.90
2019-05-30T00:26:46.717Z,3.60
2019-05-30T00:27:46.679Z,3.50
2019-05-30T00:28:46.621Z,3.60
2019-05-30T00:29:46.613Z,3.60
2019-05-30T00:30:46.705Z,3.80
2019-05-30T00:31:46.601Z,3.40
2019-05-30T00:32:46.618Z,3.40
2019-05-30T00:33:46.568Z,3.50
2019-05-30T00:34:46.553Z,3.40
2019-05-30T00:35:46.665Z,3.50
2019-05-30T00:36:46.538Z,3.50
2019-05-30T00:37:46.549Z,3.30
2019-05-30T00:38:46.528Z,3.50
2019-05-30T00:39:46.511Z,3.10
2019-05-30T00:40:46.603Z,3.50
2019-05-30T00:41:46.483Z,4.10
2019-05-30T00:42:46.508Z,3.50
2019-05-30T00:43:46.467Z,3.60
2019-05-30T00:44:46.442Z,3.40
2019-05-30T00:45:46.450Z,3.60
2019-05-30T00:46:46.556Z,3.70
2019-05-30T00:47:46.423Z,3.40
2019-05-30T00:48:46.574Z,3.60
2019-05-30T00:49:46.431Z,4.00
2019-05-30T00:50:46.397Z,3.80
2019-05-30T00:51:46.378Z,3.60
2019-05-30T00:52:46.380Z,4.10
2019-05-30T00:53:46.347Z,3.90
2019-05-30T00:54:46.341Z,3.60
2019-05-30T00:55:46.383Z,3.70
2019-05-30T00:56:46.322Z,3.60
2019-05-30T00:57:46.364Z,4.00
2019-05-30T00:58:46.294Z,4.20
2019-05-30T00:59:46.288Z,4.60
2019-05-30T01:00:46.361Z,3.90
2019-05-30T01:01:46.260Z,4.50
2019-05-30T01:02:46.344Z,4.00
2019-05-30T01:03:46.234Z,4.20
2019-05-30T01:04:46.256Z,4.40
2019-05-30T01:05:46.234Z,3.50
2019-05-30T01:06:46.201Z,4.20
2019-05-30T01:07:46.201Z,3.70
2019-05-30T01:08:46.305Z,4.00
2019-05-30T01:09:46.199Z,4.40
2019-05-30T01:10:46.183Z,4.20
2019-05-30T01:11:46.168Z,4.20
2019-05-30T01:12:46.241Z,3.60
2019-05-30T01:13:46.146Z,4.70
2019-05-30T01:14:46.115Z,3.80
2019-05-30T01:15:46.169Z,3.50
2019-05-30T01:16:46.118Z,3.90
2019-05-30T01:17:46.156Z,4.50
2019-05-30T01:18:46.072Z,4.30
2019-05-30T01:19:46.062Z,3.60
2019-05-30T01:20:46.138Z,3.80
2019-05-30T01:21:46.074Z,3.60
2019-05-30T01:22:46.056Z,4.10
2019-05-30T01:23:46.059Z,3.80
2019-05-30T01:24:46.014Z,4.20
2019-05-30T01:25:46.062Z,4.00
2019-05-30T01:26:46.013Z,3.90
2019-05-30T01:27:45.986Z,3.80
2019-05-30T01:28:45.974Z,3.60
2019-05-30T01:29:45.979Z,3.90
2019-05-30T01:30:58.929Z,3.60
2019-05-30T01:31:46.948Z,4.20
2019-05-30T01:32:45.940Z,3.90
2019-05-30T01:33:45.922Z,3.80
2019-05-30T01:34:46.477Z,3.70
2019-05-30T01:35:45.965Z,4.10
2019-05-30T01:36:45.893Z,4.50
2019-05-30T01:37:45.872Z,4.10
2019-05-30T01:38:45.871Z,4.20
2019-05-30T01:39:45.873Z,3.80
2019-05-30T01:40:45.850Z,4.20
2019-05-30T01:41:45.871Z,3.40
2019-05-30T01:42:45.808Z,3.90
2019-05-30T01:43:45.815Z,4.00
2019-05-30T01:44:45.789Z,4.00
2019-05-30T01:45:45.800Z,4.20
2019-05-30T01:46:45.835Z,4.10
2019-05-30T01:47:45.768Z,4.70
2019-05-30T01:48:45.748Z,4.40
2019-05-30T01:49:45.740Z,4.20
2019-05-30T01:50:45.800Z,4.30
2019-05-30T01:51:45.726Z,4.10
2019-05-30T01:52:45.724Z,4.00
2019-05-30T01:53:45.827Z,4.20
2019-05-30T01:54:45.673Z,4.10
2019-05-30T01:55:48.561Z,4.30
2019-05-30T01:56:45.676Z,4.60
2019-05-30T01:57:45.699Z,4.20
2019-05-30T01:58:45.633Z,4.20
2019-05-30T01:59:45.623Z,3.90
2019-05-30T02:00:45.713Z,4.40
2019-05-30T02:01:45.608Z,4.00
2019-05-30T02:02:45.607Z,4.00
2019-05-30T02:03:45.594Z,4.20
2019-05-30T02:04:45.712Z,4.10
2019-05-30T02:05:45.550Z,4.20
2019-05-30T02:06:45.581Z,4.20
2019-05-30T02:07:45.559Z,4.60
2019-05-30T02:08:45.517Z,4.00
2019-05-30T02:09:45.504Z,4.40
2019-05-30T02:10:45.514Z,4.00
2019-05-30T02:11:45.518Z,3.90
2019-05-30T02:12:45.491Z,4.30
2019-05-30T02:13:45.515Z,4.00
2019-05-30T02:14:45.466Z,4.40
2019-05-30T02:15:45.451Z,4.60
2019-05-30T02:16:45.433Z,3.80
2019-05-30T02:17:45.478Z,3.90
2019-05-30T02:18:45.512Z,4.20
2019-05-30T02:19:45.405Z,4.30
2019-05-30T02:20:45.406Z,3.60
2019-05-30T02:21:45.373Z,3.80
2019-05-30T02:22:45.413Z,3.80
2019-05-30T02:23:45.360Z,3.80
2019-05-30T02:24:45.458Z,4.50
2019-05-30T02:25:45.347Z,3.60
2019-05-30T02:26:45.368Z,4.00
2019-05-30T02:27:45.346Z,3.90
2019-05-30T02:28:45.297Z,3.80
2019-05-30T02:29:45.355Z,3.70
2019-05-30T02:30:45.272Z,4.00
2019-05-30T02:31:45.269Z,3.70
2019-05-30T02:32:45.360Z,3.90
2019-05-30T02:33:45.248Z,4.00
2019-05-30T02:34:45.238Z,3.50
2019-05-30T02:35:45.310Z,3.90
2019-05-30T02:36:45.218Z,3.80
2019-05-30T02:37:45.219Z,3.80
2019-05-30T02:38:45.194Z,3.90
2019-05-30T02:39:45.184Z,4.70
2019-05-30T02:40:45.199Z,4.00
2019-05-30T02:41:45.151Z,4.00
2019-05-30T02:42:45.154Z,4.00
2019-05-30T02:43:45.192Z,4.00
2019-05-30T02:44:45.123Z,4.00
2019-05-30T02:45:45.115Z,4.30
2019-05-30T02:46:45.133Z,3.90
2019-05-30T02:47:45.108Z,4.40
2019-05-30T02:48:58.128Z,3.70
2019-05-30T02:49:46.089Z,3.40
2019-05-30T02:50:45.082Z,4.00
2019-05-30T02:51:45.057Z,4.00
2019-05-30T02:52:45.045Z,3.90
2019-05-30T02:53:45.029Z,4.10
2019-05-30T02:54:45.014Z,3.90
2019-05-30T02:55:45.004Z,4.30
2019-05-30T02:56:45.043Z,3.80
2019-05-30T02:57:44.989Z,3.60
2019-05-30T02:58:45.002Z,3.70
2019-05-30T02:59:45.025Z,4.00
2019-05-30T03:00:44.955Z,3.40
2019-05-30T03:02:00.214Z,3.60
2019-05-30T03:02:45.953Z,4.30
2019-05-30T03:03:44.925Z,3.80
2019-05-30T03:04:44.936Z,3.80
2019-05-30T03:05:44.937Z,4.20
2019-05-30T03:06:44.884Z,3.80
2019-05-30T03:07:44.906Z,4.10
2019-05-30T03:08:45.002Z,3.60
2019-05-30T03:09:44.856Z,4.10
2019-05-30T03:10:44.852Z,4.10
2019-05-30T03:11:44.836Z,4.20
2019-05-30T03:12:45.037Z,4.40
2019-05-30T03:13:44.815Z,4.00
2019-05-30T03:14:44.799Z,4.30
2019-05-30T03:15:44.805Z,3.80
2019-05-30T03:16:44.775Z,4.00
2019-05-30T03:17:44.790Z,4.30
2019-05-30T03:18:44.774Z,3.90
2019-05-30T03:19:44.784Z,4.00
2019-05-30T03:20:44.770Z,4.00
2019-05-30T03:21:44.729Z,4.00
2019-05-30T03:22:44.788Z,4.00
2019-05-30T03:23:44.699Z,3.80
2019-05-30T03:24:44.680Z,3.40
2019-05-30T03:25:44.677Z,4.10
2019-05-30T03:26:44.665Z,4.00
2019-05-30T03:27:44.720Z,3.90
2019-05-30T03:28:44.765Z,4.00
2019-05-30T03:29:44.644Z,3.80
2019-05-30T03:30:44.623Z,3.80
2019-05-30T03:31:44.648Z,3.90
2019-05-30T03:33:07.020Z,4.20
2019-05-30T03:33:45.610Z,4.10
2019-05-30T03:34:44.604Z,4.50
2019-05-30T03:35:44.808Z,4.10
2019-05-30T03:36:44.556Z,4.30
2019-05-30T03:37:44.587Z,4.30
2019-05-30T03:38:44.598Z,4.50
2019-05-30T03:39:44.544Z,4.00
2019-05-30T03:40:44.509Z,4.70
2019-05-30T03:41:44.629Z,3.90
2019-05-30T03:42:44.497Z,3.80
2019-05-30T03:43:44.491Z,4.30
2019-05-30T03:44:44.484Z,4.50
2019-05-30T03:45:44.509Z,4.00
2019-05-30T03:46:44.446Z,4.50
2019-05-30T03:47:44.449Z,4.10
2019-05-30T03:48:44.581Z,4.10
2019-05-30T03:49:44.417Z,4.10
2019-05-30T03:50:44.437Z,4.10
2019-05-30T03:51:44.401Z,4.10
2019-05-30T03:52:44.389Z,3.90
2019-05-30T03:53:44.418Z,4.10
2019-05-30T03:54:44.372Z,4.20
2019-05-30T03:55:44.342Z,4.30
2019-05-30T03:56:44.342Z,4.30
2019-05-30T03:57:44.329Z,4.50
2019-05-30T03:58:44.337Z,4.00
2019-05-30T03:59:44.409Z,4.10
2019-05-30T04:00:44.307Z,4.50
2019-05-30T04:01:44.283Z,4.50
2019-05-30T04:02:56.027Z,4.50
2019-05-30T04:03:45.259Z,4.30
2019-05-30T04:04:44.271Z,4.40
2019-05-30T04:05:44.241Z,4.80
2019-05-30T04:06:44.280Z,4.40
2019-05-30T04:07:44.214Z,4.40
2019-05-30T04:08:44.211Z,4.40
2019-05-30T04:09:44.233Z,4.20
2019-05-30T04:10:44.205Z,4.40
2019-05-30T04:11:44.185Z,4.40
2019-05-30T04:12:44.158Z,4.40
2019-05-30T04:13:44.153Z,5.00
2019-05-30T04:14:44.205Z,5.00
2019-05-30T04:15:44.165Z,4.50
2019-05-30T04:16:44.132Z,4.70
2019-05-30T04:17:44.144Z,4.80
2019-05-30T04:18:44.096Z,5.00
2019-05-30T04:19:44.094Z,5.10
2019-05-30T04:20:44.080Z,4.80
2019-05-30T04:21:44.069Z,4.80
2019-05-30T04:22:44.091Z,5.10
2019-05-30T04:23:44.050Z,5.10
2019-05-30T04:24:44.032Z,4.70
2019-05-30T04:25:44.031Z,5.00
2019-05-30T04:26:44.018Z,4.80
2019-05-30T04:27:44.004Z,4.60
2019-05-30T04:28:44.010Z,4.80
2019-05-30T04:29:44.030Z,4.80
2019-05-30T04:30:43.977Z,4.70
2019-05-30T04:31:43.966Z,4.60
2019-05-30T04:32:43.969Z,4.30
2019-05-30T04:33:43.970Z,4.90
2019-05-30T04:34:43.921Z,4.00
2019-05-30T04:35:43.982Z,4.30
2019-05-30T04:36:43.893Z,4.00
2019-05-30T04:37:43.892Z,4.40
2019-05-30T04:38:43.898Z,4.50
2019-05-30T04:39:43.885Z,4.30
2019-05-30T04:40:43.855Z,4.50
2019-05-30T04:41:43.895Z,4.10
2019-05-30T04:42:43.838Z,4.10
2019-05-30T04:43:43.837Z,4.60
2019-05-30T04:44:43.827Z,4.60
2019-05-30T04:45:43.823Z,3.70
2019-05-30T04:46:43.886Z,4.20
2019-05-30T04:47:43.782Z,4.00
2019-05-30T04:48:43.805Z,4.20
2019-05-30T04:49:43.769Z,4.30
2019-05-30T04:50:43.761Z,4.70
2019-05-30T04:51:43.737Z,4.60
2019-05-30T04:52:43.732Z,4.20
2019-05-30T04:53:43.917Z,4.30
2019-05-30T04:54:43.726Z,4.30
2019-05-30T04:55:43.694Z,4.20
2019-05-30T04:56:43.762Z,4.70
2019-05-30T04:57:43.680Z,4.30
2019-05-30T04:58:43.670Z,4.20
2019-05-30T04:59:43.702Z,4.20
2019-05-30T05:00:43.719Z,4.20
2019-05-30T05:01:43.635Z,4.40
2019-05-30T05:02:43.616Z,4.50
2019-05-30T05:03:46.368Z,3.70
2019-05-30T05:04:43.665Z,4.90
2019-05-30T05:05:43.609Z,4.70
2019-05-30T05:06:43.596Z,4.20
2019-05-30T05:07:43.573Z,4.10
2019-05-30T05:08:43.554Z,3.70
2019-05-30T05:09:43.560Z,4.40
2019-05-30T05:10:43.527Z,4.40
2019-05-30T05:11:43.545Z,4.90
2019-05-30T05:12:43.515Z,4.30
2019-05-30T05:13:43.626Z,4.50
2019-05-30T05:14:43.495Z,4.60
2019-05-30T05:15:43.471Z,4.00
2019-05-30T05:16:43.528Z,4.00
2019-05-30T05:17:43.460Z,4.20
2019-05-30T05:18:43.489Z,4.40
2019-05-30T05:19:43.460Z,3.90
2019-05-30T05:20:43.488Z,4.30
2019-05-30T05:21:43.417Z,3.90
2019-05-30T05:22:43.489Z,4.40
2019-05-30T05:23:43.382Z,3.90
2019-05-30T05:24:43.393Z,3.80
2019-05-30T05:25:43.359Z,4.20
2019-05-30T05:26:43.366Z,3.90
2019-05-30T05:27:43.430Z,4.40
2019-05-30T05:28:43.345Z,4.00
2019-05-30T05:29:43.421Z,4.20
2019-05-30T05:30:43.326Z,4.40
2019-05-30T05:31:43.293Z,4.40
2019-05-30T05:32:43.294Z,3.70
2019-05-30T05:33:55.696Z,4.60
2019-05-30T05:34:44.282Z,3.90
2019-05-30T05:35:43.272Z,3.50
2019-05-30T05:36:43.283Z,3.90
2019-05-30T05:37:43.224Z,4.00
2019-05-30T05:38:43.230Z,3.60
2019-05-30T05:39:43.229Z,3.70
2019-05-30T05:40:43.253Z,4.00
2019-05-30T05:41:43.189Z,4.70
2019-05-30T05:42:43.174Z,4.10
2019-05-30T05:43:43.287Z,3.70
2019-05-30T05:44:43.151Z,3.90
2019-05-30T05:45:43.175Z,4.50
2019-05-30T05:46:43.161Z,3.70
2019-05-30T05:47:43.141Z,4.10
2019-05-30T05:48:43.101Z,4.50
2019-05-30T05:49:43.091Z,4.50
2019-05-30T05:50:43.097Z,4.70
2019-05-30T05:51:43.067Z,4.20
2019-05-30T05:52:43.086Z,4.10
2019-05-30T05:53:43.054Z,4.60
2019-05-30T05:54:43.050Z,4.10
2019-05-30T05:55:43.107Z,3.90
2019-05-30T05:56:43.034Z,4.90
2019-05-30T05:57:43.045Z,3.60
2019-05-30T05:58:43.143Z,4.20
2019-05-30T05:59:42.984Z,3.90
2019-05-30T06:00:43.000Z,4.20
2019-05-30T06:01:42.997Z,3.90
2019-05-30T06:02:42.958Z,4.20
2019-05-30T06:03:42.957Z,4.00
2019-05-30T06:04:42.941Z,3.90
2019-05-30T06:05:52.606Z,3.80
2019-05-30T06:06:43.937Z,3.70
2019-05-30T06:07:42.905Z,3.70
2019-05-30T06:08:42.888Z,4.20
2019-05-30T06:09:42.893Z,4.30
2019-05-30T06:10:42.956Z,4.30
2019-05-30T06:11:42.853Z,3.60
2019-05-30T06:12:42.881Z,4.40
2019-05-30T06:13:42.832Z,3.70
2019-05-30T06:14:42.846Z,3.70
2019-05-30T06:15:42.856Z,3.80
2019-05-30T06:16:42.797Z,4.30
2019-05-30T06:17:42.789Z,4.00
2019-05-30T06:18:42.783Z,4.90
2019-05-30T06:19:46.522Z,3.90
2019-05-30T06:20:42.778Z,4.20
2019-05-30T06:21:53.513Z,4.40
2019-05-30T06:22:43.727Z,3.90
2019-05-30T06:23:45.546Z,3.80
2019-05-30T06:24:42.703Z,4.70
2019-05-30T06:25:42.710Z,3.80
2019-05-30T06:26:42.676Z,3.80
2019-05-30T06:27:42.671Z,3.80
2019-05-30T06:28:42.663Z,3.20
2019-05-30T06:29:42.680Z,3.50
2019-05-30T06:30:42.674Z,4.10
2019-05-30T06:31:42.640Z,4.10
2019-05-30T06:32:42.619Z,3.80
2019-05-30T06:33:42.612Z,4.20
2019-05-30T06:34:42.594Z,4.00
2019-05-30T06:35:42.595Z,3.60
2019-05-30T06:36:42.576Z,4.00
2019-05-30T06:37:42.591Z,4.00
2019-05-30T06:38:42.556Z,4.20
2019-05-30T06:39:42.535Z,4.30
2019-05-30T06:40:42.535Z,2.80
2019-05-30T06:41:42.527Z,3.40
2019-05-30T06:42:42.521Z,4.10
2019-05-30T06:43:42.491Z,3.70
2019-05-30T06:44:42.490Z,3.90
2019-05-30T06:45:42.564Z,3.20
2019-05-30T06:46:42.479Z,3.60
2019-05-30T06:47:42.502Z,3.50
2019-05-30T06:48:42.565Z,3.50
2019-05-30T06:49:42.429Z,3.50
2019-05-30T06:50:42.438Z,3.70
2019-05-30T06:51:42.411Z,3.20
2019-05-30T06:52:42.406Z,3.60
2019-05-30T06:53:42.390Z,3.90
2019-05-30T06:54:42.383Z,3.70
2019-05-30T06:55:42.447Z,3.00
2019-05-30T06:56:44.711Z,3.20
2019-05-30T06:57:42.341Z,3.60
2019-05-30T06:58:48.811Z,3.20
2019-05-30T06:59:43.367Z,3.60
2019-05-30T07:00:42.316Z,3.40
2019-05-30T07:01:42.319Z,3.40
2019-05-30T07:02:42.356Z,3.10
2019-05-30T07:03:42.413Z,3.00
2019-05-30T07:04:51.550Z,2.80
2019-05-30T07:05:43.669Z,2.50
2019-05-30T07:06:42.606Z,3.00
2019-05-30T07:07:42.380Z,2.50
2019-05-30T07:08:42.244Z,2.30
2019-05-30T07:09:42.220Z,2.70
2019-05-30T07:10:42.214Z,2.90
2019-05-30T07:11:42.234Z,2.50
2019-05-30T07:12:42.181Z,2.20
2019-05-30T07:13:42.178Z,2.80
2019-05-30T07:14:42.177Z,2.60
2019-05-30T07:15:42.164Z,2.70
2019-05-30T07:16:42.137Z,2.70
2019-05-30T07:17:42.129Z,2.00
2019-05-30T07:18:42.126Z,2.30
2019-05-30T07:19:42.113Z,2.70
2019-05-30T07:20:42.151Z,2.50
2019-05-30T07:21:42.096Z,2.40
2019-05-30T07:22:42.075Z,2.10
2019-05-30T07:23:42.070Z,2.80
2019-05-30T07:24:42.326Z,2.20
2019-05-30T07:25:42.044Z,2.10
2019-05-30T07:26:42.033Z,2.30
2019-05-30T07:27:42.068Z,2.00
2019-05-30T07:28:42.062Z,2.30
2019-05-30T07:29:42.051Z,2.10
2019-05-30T07:30:41.981Z,2.30
2019-05-30T07:31:42.040Z,2.20
2019-05-30T07:32:41.999Z,3.50
2019-05-30T07:33:41.950Z,3.50
2019-05-30T07:34:45.604Z,2.00
2019-05-30T07:35:41.952Z,2.00
2019-05-30T07:36:41.924Z,2.40
2019-05-30T07:37:41.910Z,2.10
2019-05-30T07:38:41.996Z,1.60
2019-05-30T07:39:41.887Z,1.90
2019-05-30T07:40:41.955Z,2.00
2019-05-30T07:41:41.865Z,1.70
2019-05-30T07:42:41.862Z,1.40
2019-05-30T07:43:41.850Z,1.70
2019-05-30T07:44:41.841Z,1.50
2019-05-30T07:45:46.759Z,1.60
2019-05-30T07:46:42.808Z,1.30
2019-05-30T07:47:41.794Z,1.50
2019-05-30T07:48:41.788Z,1.70
2019-05-30T07:49:41.846Z,1.70
2019-05-30T07:50:41.799Z,1.90
2019-05-30T07:51:42.205Z,3.20
2019-05-30T07:52:42.781Z,1.30
2019-05-30T07:53:41.735Z,1.40
2019-05-30T07:54:41.749Z,1.70
2019-05-30T07:55:41.730Z,1.40
2019-05-30T07:56:41.745Z,1.60
2019-05-30T07:57:41.951Z,2.00
2019-05-30T07:58:41.681Z,1.80
2019-05-30T07:59:41.687Z,1.50
2019-05-30T08:00:41.670Z,1.50
2019-05-30T08:01:41.743Z,1.50
2019-05-30T08:02:41.678Z,1.90
2019-05-30T08:03:41.677Z,1.70
2019-05-30T08:04:41.651Z,1.70
2019-05-30T08:05:41.632Z,1.70
2019-05-30T08:06:41.616Z,1.40
2019-05-30T08:07:41.734Z,1.60
2019-05-30T08:08:41.599Z,1.70
2019-05-30T08:09:41.619Z,1.80
2019-05-30T08:10:41.580Z,2.00
2019-05-30T08:11:41.607Z,1.80
2019-05-30T08:12:41.614Z,1.70
2019-05-30T08:13:41.559Z,1.80
2019-05-30T08:14:41.708Z,1.70
2019-05-30T08:15:44.054Z,1.80
2019-05-30T08:16:41.494Z,1.80
2019-05-30T08:17:44.326Z,1.60
2019-05-30T08:18:41.508Z,1.60
2019-05-30T08:19:41.446Z,1.50
2019-05-30T08:20:41.454Z,1.50
2019-05-30T08:21:41.524Z,1.70
2019-05-30T08:22:41.428Z,1.30
2019-05-30T08:23:41.409Z,1.40
2019-05-30T08:24:41.444Z,1.60
2019-05-30T08:25:41.383Z,2.40
2019-05-30T08:26:41.388Z,1.90
2019-05-30T08:27:41.434Z,1.60
2019-05-30T08:28:42.729Z,1.90
2019-05-30T08:29:41.452Z,1.50
2019-05-30T08:30:41.353Z,1.70
2019-05-30T08:31:41.385Z,1.70
2019-05-30T08:32:41.324Z,1.10
2019-05-30T08:33:41.297Z,1.40
2019-05-30T08:34:41.286Z,1.40
2019-05-30T08:35:49.224Z,1.40
2019-05-30T08:36:42.284Z,1.50
2019-05-30T08:37:41.268Z,1.10
2019-05-30T08:38:41.311Z,1.30
2019-05-30T08:39:41.283Z,1.20
2019-05-30T08:40:41.224Z,1.30
2019-05-30T08:41:41.230Z,1.20
2019-05-30T08:42:41.274Z,1.50
2019-05-30T08:43:41.202Z,1.40
2019-05-30T08:44:41.222Z,1.30
2019-05-30T08:45:41.175Z,1.10
2019-05-30T08:46:41.166Z,1.00
2019-05-30T08:47:41.177Z,0.90
2019-05-30T08:48:41.129Z,0.90
2019-05-30T08:49:41.115Z,1.00
2019-05-30T08:50:44.325Z,0.80
2019-05-30T08:51:41.117Z,1.30
2019-05-30T08:52:41.213Z,1.10
2019-05-30T08:53:41.088Z,1.10
2019-05-30T08:54:41.060Z,1.20
2019-05-30T08:55:41.069Z,1.00
2019-05-30T08:56:41.048Z,1.00
2019-05-30T08:57:41.219Z,0.90
2019-05-30T08:58:41.045Z,0.60
2019-05-30T08:59:44.517Z,1.00
2019-05-30T09:00:41.004Z,1.10
2019-05-30T09:01:42.134Z,1.00
2019-05-30T09:02:41.146Z,1.40
2019-05-30T09:03:42.150Z,1.10
2019-05-30T09:04:41.990Z,1.30
2019-05-30T09:05:58.158Z,1.20
2019-05-30T09:06:42.107Z,0.90
2019-05-30T09:07:42.733Z,1.00
2019-05-30T09:08:41.935Z,1.10
2019-05-30T09:09:42.155Z,1.20
2019-05-30T09:10:41.315Z,0.90
2019-05-30T09:11:42.242Z,1.20
2019-05-30T09:12:42.794Z,1.20
2019-05-30T09:13:40.874Z,1.00
2019-05-30T09:14:41.249Z,1.00
2019-05-30T09:15:41.123Z,1.00
2019-05-30T09:16:40.834Z,1.10
2019-05-30T09:17:42.467Z,1.30
2019-05-30T09:18:41.621Z,0.80
2019-05-30T09:19:41.486Z,0.90
2019-05-30T09:20:41.918Z,1.20
2019-05-30T09:21:41.458Z,1.30
2019-05-30T09:22:41.863Z,1.90
2019-05-30T09:23:42.245Z,1.20
2019-05-30T09:24:41.956Z,1.80
2019-05-30T09:25:41.527Z,1.80
2019-05-30T09:26:44.199Z,1.10
2019-05-30T09:27:42.859Z,1.10
2019-05-30T09:28:41.182Z,1.20
2019-05-30T09:29:41.665Z,1.10
2019-05-30T09:30:41.680Z,1.10
2019-05-30T09:31:41.194Z,1.00
2019-05-30T09:32:41.375Z,1.40
2019-05-30T09:33:40.958Z,3.50
2019-05-30T09:34:42.018Z,1.90
2019-05-30T09:35:41.448Z,2.40
2019-05-30T09:36:41.022Z,1.40
2019-05-30T09:37:42.014Z,0.80
2019-05-30T09:38:41.791Z,1.00
2019-05-30T09:39:41.539Z,2.10
2019-05-30T09:40:42.009Z,1.40
2019-05-30T09:41:42.050Z,0.90
2019-05-30T09:42:41.178Z,1.80
2019-05-30T09:43:41.581Z,2.10
2019-05-30T09:44:41.948Z,1.10
2019-05-30T09:45:41.251Z,1.20
2019-05-30T09:46:41.461Z,1.60
2019-05-30T09:47:43.019Z,1.20
2019-05-30T09:48:42.038Z,2.50
2019-05-30T09:49:41.856Z,1.70
2019-05-30T09:50:41.979Z,4.40
2019-05-30T09:51:40.563Z,4.00
2019-05-30T09:52:41.741Z,0.90
2019-05-30T09:53:41.057Z,1.00
2019-05-30T09:54:41.180Z,1.70
2019-05-30T09:55:41.328Z,1.20
2019-05-30T09:56:40.447Z,4.60
2019-05-30T09:57:42.396Z,4.60
2019-05-30T09:58:42.254Z,46.80
2019-05-30T09:59:41.785Z,43.60
2019-05-30T10:00:42.835Z,14.60
2019-05-30T10:01:42.625Z,2.60
2019-05-30T10:02:40.408Z,2.50
2019-05-30T10:03:40.346Z,1.60
2019-05-30T10:04:40.336Z,1.80
2019-05-30T10:05:40.315Z,3.50
2019-05-30T10:06:40.314Z,10.20
2019-05-30T10:07:40.287Z,3.30
2019-05-30T10:08:40.304Z,1.10
2019-05-30T10:09:40.267Z,0.70
2019-05-30T10:10:40.253Z,1.40
2019-05-30T10:11:40.244Z,1.10
2019-05-30T10:12:40.235Z,2.00
2019-05-30T10:13:40.262Z,0.70
2019-05-30T10:14:40.215Z,1.00
2019-05-30T10:15:40.222Z,1.00
2019-05-30T10:16:40.195Z,2.80
2019-05-30T10:17:40.181Z,0.70
2019-05-30T10:18:40.160Z,0.80
2019-05-30T10:19:40.191Z,1.20
2019-05-30T10:20:40.143Z,0.90
2019-05-30T10:21:40.165Z,1.10
2019-05-30T10:22:40.134Z,0.90
2019-05-30T10:23:40.227Z,1.40
2019-05-30T10:24:42.997Z,1.60
2019-05-30T10:25:40.078Z,0.70
2019-05-30T10:26:40.072Z,1.00
2019-05-30T10:27:40.062Z,0.70
2019-05-30T10:28:40.057Z,0.90
2019-05-30T10:29:40.068Z,0.90
2019-05-30T10:30:40.114Z,0.70
2019-05-30T10:31:40.015Z,0.90
2019-05-30T10:32:40.084Z,0.70
2019-05-30T10:33:39.996Z,0.70
2019-05-30T10:34:39.995Z,0.80
2019-05-30T10:35:39.967Z,0.80
2019-05-30T10:36:44.120Z,0.70
2019-05-30T10:37:39.953Z,0.80
2019-05-30T10:38:40.032Z,1.70
2019-05-30T10:39:40.072Z,1.60
2019-05-30T10:40:40.068Z,2.60
2019-05-30T10:41:39.907Z,2.30
2019-05-30T10:42:39.914Z,1.30
2019-05-30T10:43:39.905Z,1.40
2019-05-30T10:44:39.882Z,1.60
2019-05-30T10:45:39.873Z,1.30
2019-05-30T10:46:39.851Z,0.90
2019-05-30T10:47:39.907Z,1.00
2019-05-30T10:48:39.822Z,1.10
2019-05-30T10:49:39.831Z,0.80
2019-05-30T10:50:39.973Z,0.90
2019-05-30T10:51:39.807Z,0.80
2019-05-30T10:52:39.777Z,0.90
2019-05-30T10:53:39.768Z,0.80
2019-05-30T10:54:39.776Z,0.80
2019-05-30T10:55:39.765Z,0.90
2019-05-30T10:56:39.746Z,0.90
2019-05-30T10:57:39.728Z,0.60
2019-05-30T10:58:39.862Z,1.00
2019-05-30T10:59:39.817Z,1.00
2019-05-30T11:00:39.699Z,0.70
2019-05-30T11:01:39.726Z,1.10
2019-05-30T11:02:39.679Z,0.70
2019-05-30T11:03:39.685Z,0.80
2019-05-30T11:04:39.661Z,0.90
2019-05-30T11:05:39.654Z,0.70
2019-05-30T11:06:39.738Z,1.00
2019-05-30T11:07:53.061Z,0.60
2019-05-30T11:08:40.639Z,0.80
2019-05-30T11:09:39.623Z,0.80
2019-05-30T11:10:39.610Z,1.20
2019-05-30T11:11:39.666Z,0.80
2019-05-30T11:12:39.575Z,0.80
2019-05-30T11:13:39.560Z,1.10
2019-05-30T11:14:39.572Z,0.80
2019-05-30T11:15:39.567Z,1.00
2019-05-30T11:16:39.538Z,0.90
2019-05-30T11:17:39.516Z,0.80
2019-05-30T11:18:39.567Z,1.10
2019-05-30T11:19:39.523Z,0.90
2019-05-30T11:20:39.504Z,1.10
2019-05-30T11:21:39.534Z,0.80
2019-05-30T11:22:39.532Z,0.90
2019-05-30T11:23:39.455Z,0.90
2019-05-30T11:24:39.481Z,1.60
2019-05-30T11:25:39.430Z,1.60
2019-05-30T11:26:39.460Z,1.20
2019-05-30T11:27:39.517Z,9.90
2019-05-30T11:28:39.512Z,4.00
2019-05-30T11:29:39.620Z,1.00
2019-05-30T11:30:39.550Z,1.10
2019-05-30T11:31:39.457Z,0.80
2019-05-30T11:32:39.387Z,1.00
2019-05-30T11:33:39.354Z,0.70
2019-05-30T11:34:39.426Z,0.90
2019-05-30T11:35:39.372Z,0.70
2019-05-30T11:36:39.352Z,0.70
2019-05-30T11:37:39.317Z,0.60
2019-05-30T11:38:39.348Z,0.80
2019-05-30T11:39:39.302Z,0.70
2019-05-30T11:40:39.272Z,0.60
2019-05-30T11:41:39.380Z,0.90
2019-05-30T11:42:39.300Z,0.80
2019-05-30T11:43:39.254Z,0.70
2019-05-30T11:44:39.255Z,0.70
2019-05-30T11:45:39.215Z,0.50
2019-05-30T11:46:39.302Z,0.80
2019-05-30T11:47:39.223Z,0.90
2019-05-30T11:48:39.204Z,0.70
2019-05-30T11:49:39.215Z,0.80
2019-05-30T11:50:39.160Z,0.90
2019-05-30T11:51:39.152Z,1.00
2019-05-30T11:52:39.210Z,0.90
2019-05-30T11:53:39.188Z,0.60
2019-05-30T11:54:39.166Z,0.70
2019-05-30T11:55:39.134Z,0.70
2019-05-30T11:56:39.116Z,0.80
2019-05-30T11:57:39.106Z,0.70
2019-05-30T11:58:39.086Z,0.80
2019-05-30T11:59:39.062Z,0.70
2019-05-30T12:00:39.050Z,0.80
2019-05-30T12:01:39.036Z,0.80
2019-05-30T12:02:39.033Z,0.70
2019-05-30T12:03:39.086Z,0.50
2019-05-30T12:04:39.147Z,0.60
2019-05-30T12:05:39.002Z,0.70
2019-05-30T12:06:38.999Z,0.60
2019-05-30T12:07:38.994Z,0.70
2019-05-30T12:08:38.969Z,0.90
2019-05-30T12:09:38.993Z,0.80
2019-05-30T12:10:38.950Z,0.50
2019-05-30T12:11:38.964Z,0.60
2019-05-30T12:12:38.926Z,0.70
2019-05-30T12:13:38.926Z,0.80
2019-05-30T12:14:39.004Z,0.90
2019-05-30T12:15:38.896Z,0.70
2019-05-30T12:16:38.877Z,0.70
2019-05-30T12:17:38.886Z,0.90
2019-05-30T12:18:38.867Z,0.70
2019-05-30T12:19:38.845Z,0.80
2019-05-30T12:20:38.844Z,0.90
2019-05-30T12:21:38.865Z,0.60
2019-05-30T12:22:38.821Z,0.60
2019-05-30T12:23:38.800Z,0.70
2019-05-30T12:24:38.792Z,0.80
2019-05-30T12:25:38.816Z,0.70
2019-05-30T12:26:38.782Z,0.80
2019-05-30T12:27:38.759Z,1.00
2019-05-30T12:28:38.745Z,0.70
2019-05-30T12:29:38.752Z,0.70
2019-05-30T12:30:54.401Z,0.90
2019-05-30T12:31:39.746Z,0.60
2019-05-30T12:32:39.558Z,0.70
2019-05-30T12:33:39.047Z,0.80
2019-05-30T12:34:38.835Z,0.70
2019-05-30T12:35:38.796Z,0.70
2019-05-30T12:36:38.682Z,0.90
2019-05-30T12:37:53.621Z,0.70
2019-05-30T12:38:39.786Z,0.90
2019-05-30T12:39:38.846Z,0.90
2019-05-30T12:40:39.427Z,0.70
2019-05-30T12:41:38.660Z,0.80
2019-05-30T12:42:38.637Z,0.70
2019-05-30T12:43:38.615Z,1.00
2019-05-30T12:44:38.623Z,0.70
2019-05-30T12:45:38.575Z,0.70
2019-05-30T12:46:38.579Z,0.50
2019-05-30T12:47:38.543Z,0.50
2019-05-30T12:48:38.544Z,0.70
2019-05-30T12:49:38.517Z,0.70
2019-05-30T12:50:38.817Z,0.60
2019-05-30T12:51:38.492Z,0.70
2019-05-30T12:52:38.522Z,0.60
2019-05-30T12:53:38.472Z,0.50
2019-05-30T12:54:38.570Z,1.00
2019-05-30T12:55:39.034Z,0.70
2019-05-30T12:56:38.455Z,0.60
2019-05-30T12:57:38.978Z,0.90
2019-05-30T12:58:38.472Z,0.60
2019-05-30T12:59:38.409Z,0.60
2019-05-30T13:00:38.643Z,0.70
2019-05-30T13:01:38.392Z,0.50
2019-05-30T13:02:38.386Z,0.60
2019-05-30T13:03:38.384Z,0.90
2019-05-30T13:04:38.406Z,0.50
2019-05-30T13:05:38.363Z,0.70
2019-05-30T13:06:38.366Z,0.70
2019-05-30T13:07:38.332Z,0.50
2019-05-30T13:08:38.434Z,0.60
2019-05-30T13:09:38.574Z,0.60
2019-05-30T13:10:38.702Z,0.50
2019-05-30T13:11:38.292Z,0.60
2019-05-30T13:12:38.294Z,0.50
2019-05-30T13:13:38.320Z,0.60
2019-05-30T13:14:38.237Z,0.50
2019-05-30T13:15:38.239Z,0.60
2019-05-30T13:16:38.460Z,0.80
2019-05-30T13:17:38.274Z,0.70
2019-05-30T13:18:38.198Z,0.50